Time;durP1;ratioP1;P1;durP2;ratioP2;P2;SDS_P1;SDS_P2;PMS_P1;PMS_P2;Temp;Humidity;BMP_temperature;BMP_pressure;BME280_temperature;BME280_humidity;BME280_pressure;Samples;Min_cycle;Max_cycle;Signal;HPM_P1;HPM_P2
2022/12/28 00:04:37;;;;;;;15.00;9.63;;;;;;;-1.04;100.00;100830.47;10459177;28;20120;-74
2022/12/28 00:09:38;;;;;;;16.58;10.13;;;;;;;-0.75;100.00;100860.19;10458286;28;20497;-75
2022/12/28 00:14:39;;;;;;;15.80;9.98;;;;;;;-0.58;100.00;100881.00;10458464;28;20080;-74
2022/12/28 00:19:39;;;;;;;15.35;10.07;;;;;;;-0.52;100.00;100870.22;10458418;28;20462;-74
2022/12/28 00:24:40;;;;;;;17.50;10.55;;;;;;;-0.31;100.00;100891.69;10458165;28;20394;-74
2022/12/28 00:29:41;;;;;;;19.83;11.13;;;;;;;-0.35;100.00;100878.91;10458030;28;20405;-74
2022/12/28 00:34:42;;;;;;;19.60;10.20;;;;;;;-0.24;100.00;100894.78;10445599;28;20057;-74
2022/12/28 00:39:43;;;;;;;17.10;10.07;;;;;;;-0.54;100.00;100839.91;10456641;28;20130;-74
2022/12/28 00:44:44;;;;;;;15.13;8.80;;;;;;;-0.27;100.00;100879.28;10458201;28;20044;-74
2022/12/28 00:49:44;;;;;;;18.95;10.88;;;;;;;-0.67;100.00;100807.59;10456368;28;20053;-74
2022/12/28 00:54:45;;;;;;;15.10;9.75;;;;;;;-0.70;100.00;100785.13;10454725;28;20040;-74
2022/12/28 00:59:46;;;;;;;20.05;11.43;;;;;;;-0.15;100.00;100877.78;10417294;28;20041;-73
2022/12/28 01:04:47;;;;;;;16.35;10.40;;;;;;;-0.98;100.00;100734.50;10427036;28;20037;-74
2022/12/28 01:09:48;;;;;;;15.35;10.30;;;;;;;-0.07;100.00;100894.69;10456094;28;20049;-74
2022/12/28 01:14:49;;;;;;;15.68;10.23;;;;;;;-0.05;100.00;100874.56;10451947;28;20505;-73
2022/12/28 01:19:49;;;;;;;17.67;10.60;;;;;;;-0.56;100.00;100787.81;10414804;28;20068;-73
2022/12/28 01:24:50;;;;;;;15.95;10.88;;;;;;;-0.05;100.00;100861.50;10414827;28;20515;-73
2022/12/28 01:29:51;;;;;;;14.95;10.23;;;;;;;-0.08;100.00;100864.28;10414025;28;20045;-74
2022/12/28 01:34:52;;;;;;;16.08;10.18;;;;;;;-0.03;100.00;100862.28;10414180;28;20043;-75
2022/12/28 01:39:53;;;;;;;17.00;10.38;;;;;;;-0.73;100.00;100738.34;10414410;28;20041;-74
2022/12/28 01:44:53;;;;;;;18.55;10.80;;;;;;;-0.12;100.00;100825.38;10413418;28;20041;-74
2022/12/28 01:50:01;;;;;;;19.10;11.40;;;;;;;-0.10;100.00;100813.91;10413623;28;20054;-74
2022/12/28 01:55:08;;;;;;;18.33;11.38;;;;;;;-0.07;100.00;100824.19;10413773;28;20072;-74
2022/12/28 02:00:12;;;;;;;16.33;10.02;;;;;;;-0.06;100.00;100814.56;10411685;28;20084;-75
2022/12/28 02:05:14;;;;;;;16.60;10.82;;;;;;;-0.41;100.00;100746.13;10413842;28;20142;-74
2022/12/28 02:10:16;;;;;;;17.55;11.18;;;;;;;-0.12;100.00;100794.03;10413345;28;20489;-73
2022/12/28 02:15:17;;;;;;;20.92;11.55;;;;;;;-0.58;100.00;100721.81;10412747;28;20044;-74
2022/12/28 02:20:18;;;;;;;17.67;11.00;;;;;;;-0.33;100.00;100759.56;10412641;28;20056;-75
2022/12/28 02:25:25;;;;;;;16.30;9.95;;;;;;;-0.16;100.00;100772.47;10412966;28;20087;-74
2022/12/28 02:30:26;;;;;;;16.02;9.40;;;;;;;-0.74;100.00;100677.50;10412544;28;20049;-74
2022/12/28 02:35:55;;;;;;;16.60;10.55;;;;;;;-0.24;100.00;100762.50;10412940;28;20132;-74
2022/12/28 02:41:16;;;;;;;16.70;10.23;;;;;;;-0.77;100.00;100654.19;10409225;28;20508;-74
2022/12/28 02:52:00;;;;;;;22.13;10.27;;;;;;;-0.99;100.00;100610.25;10425686;28;20084;-74
2022/12/28 02:57:26;;;;;;;17.85;10.88;;;;;;;-0.09;100.00;100750.31;10453410;28;20079;-74
2022/12/28 03:02:56;;;;;;;16.35;9.35;;;;;;;0.00;100.00;100762.00;10435346;28;20123;-74
2022/12/28 03:08:21;;;;;;;16.15;10.23;;;;;;;-0.04;100.00;100747.44;10399963;28;20048;-75
2022/12/28 03:13:42;;;;;;;17.95;11.02;;;;;;;0.19;100.00;100767.81;10419833;28;20528;-74
2022/12/28 03:34:51;;;;;;;20.60;12.15;;;;;;;-0.11;100.00;100720.84;10412839;28;20045;-75
2022/12/28 03:40:06;;;;;;;22.88;12.63;;;;;;;0.29;100.00;100769.88;10411630;28;20094;-75
2022/12/28 03:45:19;;;;;;;18.15;12.50;;;;;;;0.25;100.00;100769.22;10403877;28;20155;-72
2022/12/28 03:50:21;;;;;;;19.38;11.63;;;;;;;0.26;100.00;100762.22;10418517;28;20061;-75
2022/12/28 03:55:23;;;;;;;22.48;12.55;;;;;;;0.28;100.00;100748.13;10417499;28;20041;-76
2022/12/28 04:00:24;;;;;;;21.20;11.85;;;;;;;0.29;100.00;100751.59;10418095;28;20041;-74
2022/12/28 04:05:25;;;;;;;17.88;11.15;;;;;;;0.52;100.00;100789.41;10417515;28;20053;-73
2022/12/28 04:10:26;;;;;;;18.33;11.25;;;;;;;0.41;100.00;100780.44;10415977;28;20056;-77
2022/12/28 04:15:27;;;;;;;18.25;11.60;;;;;;;-0.03;100.00;100700.34;10417512;28;20041;-74
2022/12/28 04:20:27;;;;;;;18.88;11.27;;;;;;;0.46;100.00;100780.16;10416866;28;20394;-80
2022/12/28 04:25:28;;;;;;;21.40;11.07;;;;;;;-0.17;100.00;100682.03;10416420;28;20505;-79
2022/12/28 04:30:29;;;;;;;15.65;9.70;;;;;;;0.10;100.00;100723.94;10416708;28;20037;-77
2022/12/28 04:35:32;;;;;;;20.17;11.68;;;;;;;0.13;100.00;100736.81;10416094;28;20132;-78
2022/12/28 04:40:32;;;;;;;20.27;12.05;;;;;;;0.31;100.00;100768.84;10417025;28;20041;-77
2022/12/28 04:45:33;;;;;;;17.17;11.10;;;;;;;-0.37;100.00;100656.25;10408871;28;20056;-74
2022/12/28 04:50:36;;;;;;;20.50;11.55;;;;;;;0.15;100.00;100755.00;10436916;28;20519;-74
2022/12/28 04:55:37;;;;;;;18.67;11.45;;;;;;;-0.08;100.00;100697.16;10442468;28;20492;-74
2022/12/28 05:00:38;;;;;;;21.08;11.50;;;;;;;0.12;100.00;100729.94;10456863;28;20037;-74
2022/12/28 05:05:39;;;;;;;23.08;13.20;;;;;;;0.27;100.00;100743.84;10456666;28;20037;-74
2022/12/28 05:10:39;;;;;;;20.30;12.55;;;;;;;-0.50;100.00;100623.06;10456921;28;20412;-75
2022/12/28 05:15:40;;;;;;;25.25;12.25;;;;;;;0.60;100.00;100795.00;10456443;28;20049;-75
2022/12/28 05:20:41;;;;;;;22.55;12.68;;;;;;;0.07;100.00;100705.00;10455738;28;20102;-76
2022/12/28 05:25:42;;;;;;;24.90;13.45;;;;;;;0.60;100.00;100779.31;10455674;28;20520;-75
2022/12/28 05:30:43;;;;;;;20.05;12.13;;;;;;;0.54;100.00;100751.78;10455136;28;20132;-77
2022/12/28 05:35:44;;;;;;;21.90;13.00;;;;;;;0.74;100.00;100747.94;10455698;28;20048;-75
2022/12/28 05:40:44;;;;;;;25.40;13.30;;;;;;;0.74;100.00;100747.94;10455783;28;20041;-76
2022/12/28 05:45:45;;;;;;;22.33;12.93;;;;;;;0.65;100.00;100733.66;10456049;28;20041;-75
2022/12/28 05:50:46;;;;;;;18.40;12.45;;;;;;;0.71;100.00;100732.44;10454828;28;20060;-76
2022/12/28 05:55:48;;;;;;;21.95;12.70;;;;;;;0.75;100.00;100736.56;10455299;28;20048;-76
2022/12/28 06:00:49;;;;;;;22.38;12.40;;;;;;;0.54;100.00;100693.41;10454180;28;20033;-76
2022/12/28 06:05:50;;;;;;;18.17;11.07;;;;;;;1.00;100.00;100745.47;10454629;28;20056;-76
2022/12/28 06:10:51;;;;;;;36.72;24.83;;;;;;;0.58;100.00;100659.16;10453798;28;20055;-77
2022/12/28 06:15:51;;;;;;;21.55;13.40;;;;;;;1.09;100.00;100718.72;10454182;28;20037;-76
2022/12/28 06:20:52;;;;;;;20.73;12.65;;;;;;;1.23;100.00;100723.09;10453720;28;20416;-76
2022/12/28 06:25:53;;;;;;;25.95;14.25;;;;;;;1.33;100.00;100735.47;10454170;28;20043;-76
2022/12/28 06:31:11;;;;;;;26.02;14.18;;;;;;;1.44;100.00;100713.00;10453597;28;20131;-76
2022/12/28 06:36:20;;;;;;;28.80;14.77;;;;;;;1.23;100.00;100668.97;10459367;28;20111;-76
2022/12/28 06:41:22;;;;;;;25.63;13.73;;;;;;;1.77;100.00;100726.47;10460981;28;20041;-76
2022/12/28 06:46:24;;;;;;;23.90;14.32;;;;;;;2.04;100.00;100715.09;10461901;28;20040;-75
2022/12/28 06:51:31;;;;;;;26.38;14.52;;;;;;;2.22;100.00;100715.63;10462551;28;20511;-75
2022/12/28 06:56:33;;;;;;;24.75;15.07;;;;;;;2.28;100.00;100709.97;10461629;28;20404;-76
2022/12/28 07:01:43;;;;;;;28.42;15.38;;;;;;;2.29;100.00;100707.22;10461096;28;20048;-76
2022/12/28 07:06:43;;;;;;;27.58;16.13;;;;;;;2.34;100.00;100712.16;10460622;28;20066;-75
2022/12/28 07:11:44;;;;;;;28.45;15.68;;;;;;;2.27;100.00;100690.78;10460821;28;20041;-76
2022/12/28 07:16:47;;;;;;;26.77;15.43;;;;;;;2.20;100.00;100672.94;10460417;28;20040;-75
2022/12/28 07:21:48;;;;;;;25.20;16.65;;;;;;;2.46;100.00;100702.59;10434413;28;20123;-76
2022/12/28 07:26:49;;;;;;;25.23;15.20;;;;;;;2.55;100.00;100694.09;10419438;28;20044;-76
2022/12/28 07:31:50;;;;;;;24.98;15.90;;;;;;;2.65;100.00;100668.88;10419084;28;20048;-76
2022/12/28 07:36:51;;;;;;;23.40;15.63;;;;;;;3.02;100.00;100691.63;10418744;28;20441;-76
2022/12/28 07:41:51;;;;;;;27.08;15.48;;;;;;;3.10;100.00;100679.63;10418729;28;20045;-76
2022/12/28 07:46:52;;;;;;;25.30;15.60;;;;;;;3.19;99.64;100675.50;10416821;28;20120;-76
2022/12/28 07:51:53;;;;;;;22.83;15.00;;;;;;;3.46;99.72;100675.25;10417702;28;20068;-76
2022/12/28 07:56:54;;;;;;;28.27;14.95;;;;;;;3.26;99.67;100649.63;10418708;28;20457;-76
2022/12/28 08:01:54;;;;;;;21.35;14.43;;;;;;;3.25;98.52;100613.84;10417442;28;20041;-76
2022/12/28 08:06:55;;;;;;;25.35;15.68;;;;;;;3.48;99.14;100633.97;10417813;28;20060;-76
2022/12/28 08:11:57;;;;;;;25.58;15.52;;;;;;;3.63;98.37;100642.47;10417057;28;20042;-76
2022/12/28 08:16:58;;;;;;;23.20;15.07;;;;;;;3.69;98.26;100643.81;10416929;28;20045;-76
2022/12/28 08:21:59;;;;;;;27.95;15.93;;;;;;;3.67;97.98;100622.88;10417867;28;20064;-76
2022/12/28 08:27:00;;;;;;;23.48;15.55;;;;;;;3.78;98.00;100601.91;10416569;28;20517;-75
2022/12/28 08:32:01;;;;;;;27.55;16.58;;;;;;;3.40;97.51;100518.13;10417010;28;20067;-76
2022/12/28 08:37:01;;;;;;;26.90;17.08;;;;;;;3.67;97.33;100541.44;10416349;28;20045;-76
2022/12/28 08:42:02;;;;;;;27.17;17.85;;;;;;;3.93;97.30;100578.84;10416113;28;20408;-76
2022/12/28 08:47:03;;;;;;;29.73;18.25;;;;;;;3.91;97.53;100582.53;10415676;28;20051;-76
2022/12/28 08:52:04;;;;;;;26.25;17.17;;;;;;;3.77;97.84;100538.94;10416462;28;20061;-76
2022/12/28 08:57:05;;;;;;;29.00;17.55;;;;;;;3.96;97.39;100568.09;10415483;28;20053;-77
2022/12/28 09:02:06;;;;;;;37.95;19.55;;;;;;;4.06;97.43;100558.50;10416204;28;20042;-76
2022/12/28 09:07:06;;;;;;;31.73;19.60;;;;;;;3.91;96.80;100522.09;10413651;28;20477;-77
2022/12/28 09:12:07;;;;;;;31.75;17.98;;;;;;;4.33;95.64;100555.50;10414560;28;20115;-75
2022/12/28 09:17:08;;;;;;;33.88;20.20;;;;;;;3.88;96.13;100463.56;10414512;28;20041;-75
2022/12/28 09:22:08;;;;;;;31.42;19.38;;;;;;;4.05;96.49;100511.34;10415452;28;20045;-76
2022/12/28 09:27:09;;;;;;;38.25;20.52;;;;;;;3.85;96.17;100441.94;10413939;28;20409;-75
2022/12/28 09:32:10;;;;;;;33.50;20.08;;;;;;;3.39;97.11;100379.94;10413900;28;20041;-75
2022/12/28 09:37:11;;;;;;;34.47;19.77;;;;;;;3.60;98.07;100422.06;10413799;28;20064;-77
2022/12/28 09:42:20;;;;;;;30.23;18.55;;;;;;;3.70;98.16;100388.00;10413673;28;20122;-76
2022/12/28 09:47:32;;;;;;;26.33;16.77;;;;;;;3.30;98.66;100288.75;10414495;28;20046;-77
2022/12/28 09:52:42;;;;;;;24.85;15.95;;;;;;;3.46;98.61;100281.31;10414048;28;20037;-76
2022/12/28 09:57:46;;;;;;;20.67;14.40;;;;;;;4.17;97.30;100347.34;10413473;28;20045;-76
2022/12/28 10:02:51;;;;;;;;;;;;;;;4.83;96.68;100389.19;10414114;28;20041;-76
2022/12/28 10:07:56;;;;;;;18.42;12.98;;;;;;;5.01;95.44;100386.78;10413580;28;19921;-76
2022/12/28 10:13:11;;;;;;;21.35;12.88;;;;;;;4.75;94.95;100313.50;10412590;28;20528;-76
2022/12/28 10:18:14;;;;;;;20.40;13.75;;;;;;;5.37;94.18;100382.78;10413325;28;20107;-76
2022/12/28 10:23:23;;;;;;;21.23;13.65;;;;;;;5.51;92.78;100363.13;10413342;28;20044;-76
2022/12/28 10:28:30;;;;;;;21.45;14.15;;;;;;;5.80;93.37;100381.63;10413254;28;20050;-76
2022/12/28 10:33:31;;;;;;;19.90;13.65;;;;;;;6.17;92.65;100363.38;10412650;28;20541;-75
2022/12/28 10:38:33;;;;;;;20.15;13.98;;;;;;;6.52;91.43;100345.28;10412805;28;20132;-76
2022/12/28 10:43:44;;;;;;;19.17;13.45;;;;;;;6.67;90.18;100366.78;10412182;28;20049;-76
2022/12/28 10:48:52;;;;;;;22.80;13.93;;;;;;;6.70;91.16;100392.91;10412307;28;20144;-76
2022/12/28 10:53:55;;;;;;;19.98;14.43;;;;;;;6.08;91.78;100293.00;10411839;28;20497;-77
2022/12/28 10:59:11;;;;;;;20.55;13.80;;;;;;;6.72;90.63;100380.41;10412941;28;20052;-75
2022/12/28 11:04:16;;;;;;;25.10;14.15;;;;;;;6.89;90.83;100387.59;10412161;28;20038;-75
2022/12/28 11:09:25;;;;;;;25.27;13.50;;;;;;;7.11;91.02;100389.03;10412536;28;20091;-75
2022/12/28 11:14:33;;;;;;;27.30;13.52;;;;;;;7.03;90.52;100336.97;10411578;28;20041;-75
2022/12/28 11:19:34;;;;;;;18.77;12.93;;;;;;;7.50;90.35;100410.03;10413343;28;20103;-75
2022/12/28 11:24:35;;;;;;;16.73;12.77;;;;;;;7.32;89.74;100397.56;10419473;28;20041;-76
2022/12/28 11:29:38;;;;;;;19.02;12.38;;;;;;;7.32;88.94;100400.22;10419322;28;20049;-77
2022/12/28 11:34:39;;;;;;;14.60;11.60;;;;;;;7.45;88.82;100468.63;10419896;28;20037;-76
2022/12/28 11:39:46;;;;;;;17.88;12.55;;;;;;;6.76;87.73;100381.78;10418973;28;20473;-75
2022/12/28 11:44:49;;;;;;;13.38;10.48;;;;;;;7.18;87.60;100472.06;10418730;28;20132;-76
2022/12/28 11:49:50;;;;;;;13.07;10.00;;;;;;;7.12;88.28;100463.84;10430138;28;20140;-78
2022/12/28 11:54:56;;;;;;;15.00;11.10;;;;;;;7.20;86.57;100511.53;10445989;28;20136;-76
2022/12/28 12:00:20;;;;;;;17.65;12.18;;;;;;;7.15;84.60;100513.75;10452720;28;20607;-76
2022/12/28 12:05:36;;;;;;;16.17;11.80;;;;;;;6.97;84.02;100546.19;10458476;28;20033;-75
2022/12/28 12:10:38;;;;;;;19.92;12.00;;;;;;;6.54;85.95;100522.81;10457831;28;20076;-83
2022/12/28 12:15:43;;;;;;;16.10;12.35;;;;;;;6.51;86.05;100537.13;10455694;28;20033;-88
2022/12/28 12:20:47;;;;;;;16.08;11.77;;;;;;;6.54;86.68;100546.56;10450716;28;20111;-80
2022/12/28 12:25:53;;;;;;;22.38;12.23;;;;;;;6.51;87.01;100554.75;10436831;28;20041;-82
2022/12/28 12:30:55;;;;;;;19.35;13.00;;;;;;;6.21;87.42;100497.63;10421648;28;20046;-82
2022/12/28 12:36:04;;;;;;;20.23;13.48;;;;;;;6.58;87.37;100566.44;10415898;28;20413;-83
2022/12/28 12:41:24;;;;;;;24.80;15.07;;;;;;;6.49;86.65;100570.75;10442163;28;20045;-82
2022/12/28 12:46:42;;;;;;;25.92;16.13;;;;;;;6.38;87.39;100587.50;10424883;28;20467;-82
2022/12/28 12:52:05;;;;;;;23.48;15.95;;;;;;;6.28;87.83;100576.13;10422233;28;20061;-82
2022/12/28 12:57:29;;;;;;;25.35;15.50;;;;;;;6.07;89.24;100562.13;10456928;28;20041;-80
2022/12/28 13:02:35;;;;;;;21.88;15.43;;;;;;;6.11;89.21;100598.69;10447030;28;20041;-82
2022/12/28 13:07:39;;;;;;;24.42;15.10;;;;;;;5.61;90.46;100526.53;10434567;28;20049;-81
2022/12/28 13:12:40;;;;;;;26.35;17.38;;;;;;;6.02;90.55;100596.84;10439570;28;20045;-80
2022/12/28 13:17:58;;;;;;;27.23;15.70;;;;;;;5.69;91.57;100561.81;10415095;28;20069;-75
2022/12/28 13:22:59;;;;;;;32.50;20.88;;;;;;;5.60;91.42;100549.44;10415199;28;20044;-82
2022/12/28 13:28:02;;;;;;;59.90;36.30;;;;;;;5.96;91.69;100609.72;10412999;28;20045;-82
2022/12/28 13:33:03;;;;;;;43.08;25.27;;;;;;;5.32;92.13;100516.66;10451332;28;20049;-82
2022/12/28 13:38:14;;;;;;;35.75;18.90;;;;;;;5.70;92.88;100581.09;10455490;28;20136;-82
2022/12/28 13:43:24;;;;;;;25.95;17.92;;;;;;;5.63;95.11;100593.13;10453478;28;20032;-81
2022/12/28 13:48:27;;;;;;;30.92;18.52;;;;;;;5.49;94.19;100583.75;10454950;28;20045;-82
2022/12/28 13:53:30;;;;;;;31.80;16.85;;;;;;;5.43;94.23;100571.94;10454609;28;20068;-81
2022/12/28 13:58:35;;;;;;;32.45;17.30;;;;;;;4.93;94.93;100497.16;10444245;28;20072;-80
2022/12/28 14:03:38;;;;;;;36.15;21.58;;;;;;;5.09;95.20;100546.75;10416323;28;20049;-80
2022/12/28 14:08:40;;;;;;;50.97;26.52;;;;;;;5.08;95.79;100580.13;10391687;28;20046;-80
2022/12/28 14:13:41;;;;;;;42.25;23.73;;;;;;;5.33;96.50;100621.09;10413170;28;20472;-77
2022/12/28 14:18:44;;;;;;;50.67;26.63;;;;;;;5.08;96.32;100610.91;10412786;28;20133;-77
2022/12/28 14:23:45;;;;;;;43.60;23.42;;;;;;;5.08;96.77;100617.00;10406854;28;20555;-77
2022/12/28 14:28:53;;;;;;;38.40;22.13;;;;;;;5.20;96.52;100649.38;10376057;28;20042;-75
2022/12/28 14:33:58;;;;;;;38.80;20.65;;;;;;;4.89;96.46;100611.56;10371958;28;20037;-80
2022/12/28 14:39:00;;;;;;;37.67;22.95;;;;;;;4.85;96.62;100644.38;10370996;28;20041;-76
2022/12/28 14:44:06;;;;;;;39.88;23.17;;;;;;;4.38;96.62;100570.91;10371731;28;20041;-79
2022/12/28 14:49:28;;;;;;;44.75;25.60;;;;;;;5.31;96.75;100715.22;10376653;28;20136;-76
2022/12/28 14:54:30;;;;;;;31.60;19.67;;;;;;;4.37;96.04;100582.41;10454232;28;20033;-78
2022/12/28 14:59:45;;;;;;;27.88;18.90;;;;;;;4.73;97.24;100659.38;10456414;28;20045;-77
2022/12/28 15:04:48;;;;;;;32.30;20.08;;;;;;;4.58;96.45;100638.56;10441286;28;20041;-84
2022/12/28 15:09:49;;;;;;;34.73;19.67;;;;;;;5.19;97.35;100738.09;10420924;28;20053;-84
2022/12/28 15:14:50;;;;;;;30.50;19.60;;;;;;;4.81;96.60;100696.41;10415912;28;20060;-76
2022/12/28 15:19:51;;;;;;;29.77;18.50;;;;;;;5.10;96.57;100762.56;10417622;28;20041;-75
2022/12/28 15:24:52;;;;;;;42.22;23.25;;;;;;;4.36;97.23;100664.88;10417917;28;20046;-85
2022/12/28 15:29:52;;;;;;;42.50;24.63;;;;;;;4.96;97.30;100784.69;10441279;28;20067;-86
2022/12/28 15:34:53;;;;;;;39.50;23.85;;;;;;;4.35;98.12;100700.88;10451438;28;20041;-81
2022/12/28 15:39:54;;;;;;;32.00;20.75;;;;;;;4.87;98.32;100795.13;10419525;28;20060;-82
2022/12/28 15:44:55;;;;;;;32.97;20.63;;;;;;;4.84;98.63;100790.09;10456723;28;20064;-82
2022/12/28 15:49:58;;;;;;;27.38;18.35;;;;;;;5.12;99.03;100829.13;10438820;28;20056;-78
2022/12/28 15:54:59;;;;;;;30.85;18.52;;;;;;;5.15;99.83;100835.94;10458841;28;20041;-79
2022/12/28 15:59:59;;;;;;;29.27;18.63;;;;;;;5.08;100.00;100832.09;10441578;28;20042;-78
2022/12/28 16:05:00;;;;;;;36.85;21.13;;;;;;;5.20;100.00;100850.38;10418218;28;20107;-79
2022/12/28 16:10:01;;;;;;;29.52;18.17;;;;;;;4.83;100.00;100806.84;10416826;28;20401;-78
2022/12/28 16:15:02;;;;;;;29.48;15.50;;;;;;;4.71;100.00;100785.78;10417118;28;20095;-79
2022/12/28 16:20:04;;;;;;;12.52;7.55;;;;;;;5.22;100.00;100858.19;10416813;28;20045;-79
2022/12/28 16:25:05;;;;;;;6.97;4.18;;;;;;;5.44;100.00;100863.44;10418077;28;20049;-80
2022/12/28 16:30:06;;;;;;;7.43;3.88;;;;;;;5.70;100.00;100894.78;10416626;28;20045;-82
2022/12/28 16:35:07;;;;;;;8.05;4.45;;;;;;;5.77;100.00;100922.31;10417500;28;20405;-80
2022/12/28 16:40:09;;;;;;;7.25;3.88;;;;;;;5.33;100.00;100858.19;10416062;28;20397;-80
2022/12/28 16:45:10;;;;;;;5.43;3.65;;;;;;;5.16;100.00;100853.41;10416185;28;20056;-81
2022/12/28 16:50:11;;;;;;;6.28;3.60;;;;;;;5.65;100.00;100941.75;10416469;28;20065;-81
2022/12/28 16:55:11;;;;;;;5.78;3.55;;;;;;;5.26;100.00;100891.22;10416078;28;20131;-81
2022/12/28 17:00:12;;;;;;;5.15;3.40;;;;;;;5.22;100.00;100905.59;10416082;28;20044;-84
2022/12/28 17:05:14;;;;;;;5.07;3.72;;;;;;;5.18;100.00;100918.19;10429925;28;20045;-80
2022/12/28 17:10:14;;;;;;;7.57;3.45;;;;;;;5.49;100.00;100990.38;10414775;28;20111;-79
2022/12/28 17:15:15;;;;;;;7.07;4.38;;;;;;;5.26;100.00;100963.22;10415389;28;20099;-80
2022/12/28 17:20:16;;;;;;;5.45;3.40;;;;;;;5.16;100.00;100962.22;10414773;28;20459;-79
2022/12/28 17:25:17;;;;;;;5.18;3.10;;;;;;;4.84;100.00;100943.59;10414666;28;20085;-79
2022/12/28 17:30:18;;;;;;;5.70;2.38;;;;;;;5.01;100.00;101000.25;10414814;28;20573;-79
2022/12/28 17:35:19;;;;;;;2.63;1.52;;;;;;;4.94;100.00;101026.22;10417009;28;20110;-81
2022/12/28 17:40:20;;;;;;;3.13;1.65;;;;;;;4.34;100.00;100972.75;10441872;28;20082;-79
2022/12/28 17:45:21;;;;;;;2.95;1.52;;;;;;;4.56;100.00;101034.31;10414721;28;20042;-79
2022/12/28 17:50:22;;;;;;;5.22;1.63;;;;;;;4.30;100.00;101030.94;10414146;28;20064;-80
2022/12/28 17:55:22;;;;;;;3.67;1.80;;;;;;;3.58;100.00;100926.53;10449959;28;20107;-79
2022/12/28 18:00:23;;;;;;;3.42;2.10;;;;;;;4.01;100.00;101010.22;10453069;28;20079;-78
2022/12/28 18:05:24;;;;;;;4.53;2.22;;;;;;;4.27;100.00;101052.19;10454439;28;20040;-79
2022/12/28 18:10:26;;;;;;;5.82;2.67;;;;;;;4.15;100.00;101050.44;10454157;28;20047;-78
2022/12/28 18:15:26;;;;;;;5.40;3.20;;;;;;;3.39;100.00;100942.75;10453887;28;20416;-80
2022/12/28 18:20:27;;;;;;;5.32;3.17;;;;;;;4.05;100.00;101073.94;10453041;28;20036;-81
2022/12/28 18:25:30;;;;;;;4.35;2.78;;;;;;;3.60;100.00;101010.50;10441696;28;20041;-81
2022/12/28 18:30:30;;;;;;;4.22;2.80;;;;;;;3.25;100.00;100966.50;10424614;28;20528;-83
2022/12/28 18:35:31;;;;;;;6.10;3.60;;;;;;;3.47;100.00;101012.28;10420121;28;20051;-81
2022/12/28 18:40:36;;;;;;;5.80;3.70;;;;;;;3.91;100.00;101074.06;10419595;28;20391;-82
2022/12/28 18:45:37;;;;;;;6.03;4.18;;;;;;;3.50;100.00;101022.56;10420894;28;20507;-80
2022/12/28 18:50:38;;;;;;;7.65;4.70;;;;;;;3.30;100.00;101016.91;10421069;28;20135;-81
2022/12/28 18:55:39;;;;;;;6.97;4.25;;;;;;;3.49;100.00;101068.19;10420469;28;20052;-82
2022/12/28 19:00:39;;;;;;;5.95;4.22;;;;;;;3.40;100.00;101072.28;10423598;28;20504;-82
2022/12/28 19:05:40;;;;;;;5.95;4.15;;;;;;;3.78;100.00;101134.53;10442773;28;20072;-82
2022/12/28 19:10:48;;;;;;;9.43;4.10;;;;;;;3.55;99.56;101105.38;10461337;28;20048;-79
2022/12/28 19:15:48;;;;;;;5.22;3.08;;;;;;;3.12;99.61;101050.50;10423511;28;20047;-82
2022/12/28 19:20:57;;;;;;;6.28;3.60;;;;;;;3.35;97.81;101103.25;10422553;28;20507;-79
2022/12/28 19:25:59;;;;;;;5.05;3.60;;;;;;;3.42;98.54;101131.66;10429258;28;20080;-79
2022/12/28 19:30:59;;;;;;;6.78;4.13;;;;;;;2.98;98.94;101080.28;10459003;28;20075;-80
2022/12/28 19:36:00;;;;;;;5.50;3.97;;;;;;;3.32;99.62;101156.84;10460156;28;20037;-81
2022/12/28 19:41:08;;;;;;;5.63;3.95;;;;;;;3.50;99.35;101211.72;10460424;28;20115;-79
2022/12/28 19:46:17;;;;;;;4.78;3.85;;;;;;;3.01;99.06;101149.28;10459885;28;20094;-79
2022/12/28 19:51:18;;;;;;;5.70;3.50;;;;;;;3.28;98.45;101207.88;10460154;28;20554;-81
2022/12/28 19:56:19;;;;;;;5.55;3.72;;;;;;;3.30;98.46;101228.78;10459521;28;20098;-80
2022/12/28 20:01:27;;;;;;;6.18;4.25;;;;;;;2.89;98.67;101177.16;10447510;28;20041;-79
2022/12/28 20:06:28;;;;;;;6.40;4.47;;;;;;;3.21;99.60;101248.59;10377165;28;20045;-80
2022/12/28 20:11:29;;;;;;;5.90;4.03;;;;;;;3.22;98.39;101279.16;10376882;28;20092;-80
2022/12/28 20:16:32;;;;;;;5.45;3.90;;;;;;;3.19;99.25;101266.22;10377247;28;20045;-81
2022/12/28 20:21:35;;;;;;;5.13;3.40;;;;;;;3.06;98.74;101252.22;10375127;28;20030;-81
2022/12/28 20:26:36;;;;;;;5.18;3.55;;;;;;;3.12;98.20;101257.06;10376988;28;20134;-81
2022/12/28 20:31:37;;;;;;;4.55;2.72;;;;;;;2.49;97.50;101153.44;10376078;28;20129;-83
2022/12/28 20:36:38;;;;;;;4.28;2.22;;;;;;;3.12;96.47;101275.44;10380253;28;20128;-81
2022/12/28 20:46:58;;;;;;;5.00;3.38;;;;;;;3.00;93.83;101286.72;10457628;28;20045;-81
2022/12/28 20:51:59;;;;;;;5.03;3.58;;;;;;;2.80;93.50;101248.59;10457447;28;20084;-81
2022/12/28 20:57:00;;;;;;;6.10;3.85;;;;;;;2.75;93.10;101256.72;10455381;28;20076;-79
2022/12/28 21:02:01;;;;;;;4.78;3.85;;;;;;;2.39;93.37;101233.63;10457221;28;20048;-79
2022/12/28 21:07:03;;;;;;;5.78;4.47;;;;;;;2.51;93.88;101254.72;10455091;28;20072;-79
2022/12/28 21:12:04;;;;;;;5.57;4.10;;;;;;;2.23;93.81;101205.72;10456133;28;20048;-80
2022/12/28 21:17:05;;;;;;;8.50;4.80;;;;;;;2.73;93.80;101288.34;10442671;28;20048;-79
2022/12/28 21:22:06;;;;;;;7.45;4.68;;;;;;;2.46;94.07;101248.06;10456279;28;20045;-79
2022/12/28 21:27:06;;;;;;;7.63;4.70;;;;;;;2.80;94.27;101309.78;10456362;28;20033;-79
2022/12/28 21:32:08;;;;;;;6.32;4.10;;;;;;;2.62;93.59;101284.69;10455624;28;20041;-79
2022/12/28 21:42:28;;;;;;;6.10;3.22;;;;;;;2.58;93.00;101286.66;10456083;28;20041;-80
2022/12/28 21:47:29;;;;;;;4.15;2.85;;;;;;;2.53;92.54;101291.31;10454175;28;20098;-80
2022/12/28 21:52:31;;;;;;;4.55;2.83;;;;;;;2.88;91.50;101361.81;10454643;28;20060;-80
2022/12/28 21:57:31;;;;;;;4.18;2.47;;;;;;;2.43;90.57;101298.06;10454783;28;20116;-79
2022/12/28 22:12:33;;;;;;;4.18;2.70;;;;;;;2.28;90.35;101302.44;10453143;28;20029;-80
2022/12/28 22:13:12;;;;;;;4.43;2.95;;;;;;;2.73;90.14;101390.66;10454540;28;20103;-80
2022/12/28 22:18:21;;;;;;;4.55;2.92;;;;;;;2.43;89.82;101361.84;10453749;28;20044;-80
2022/12/28 22:23:23;;;;;;;4.63;2.80;;;;;;;1.59;90.37;101231.34;10454494;28;20128;-79
2022/12/28 22:28:23;;;;;;;6.70;2.45;;;;;;;2.68;90.98;101421.56;10455004;28;20122;-79
2022/12/28 22:33:24;;;;;;;4.30;2.53;;;;;;;2.37;90.88;101364.84;10454300;28;20068;-79
2022/12/28 22:38:26;;;;;;;5.15;2.50;;;;;;;2.50;90.35;101385.94;10453042;28;20099;-80
2022/12/28 22:43:26;;;;;;;3.67;2.10;;;;;;;2.53;90.70;101406.72;10454618;28;20045;-79
2022/12/28 22:48:28;;;;;;;4.88;2.25;;;;;;;2.18;90.46;101365.03;10453600;28;20053;-79
2022/12/28 22:53:28;;;;;;;5.72;2.25;;;;;;;2.22;90.51;101378.84;10452193;28;20040;-79
2022/12/28 22:58:30;;;;;;;4.20;2.22;;;;;;;2.53;90.33;101434.75;10452515;28;20045;-80
2022/12/28 23:03:30;;;;;;;3.47;2.20;;;;;;;1.75;89.71;101317.72;10453637;28;20055;-79
2022/12/28 23:08:31;;;;;;;3.92;1.85;;;;;;;2.64;89.01;101482.19;10440283;28;20044;-79
2022/12/28 23:13:32;;;;;;;4.10;2.00;;;;;;;2.24;89.14;101418.91;10453495;28;20060;-79
2022/12/28 23:29:12;;;;;;;4.05;2.10;;;;;;;2.39;88.72;101474.88;10460010;28;20049;-78
2022/12/28 23:34:13;;;;;;;3.70;2.10;;;;;;;2.51;88.39;101521.38;10459937;28;20471;-80
2022/12/28 23:39:14;;;;;;;3.00;1.95;;;;;;;2.13;88.33;101464.09;10459738;28;20078;-78
2022/12/28 23:44:25;;;;;;;4.25;2.20;;;;;;;2.33;87.24;101506.69;10446967;28;20048;-79
2022/12/28 23:49:26;;;;;;;3.70;2.00;;;;;;;2.45;87.68;101526.97;10459080;28;20492;-81